createdAt,value
2017-11-18T00:00:30.503Z,1019.16
2017-11-18T00:01:11.026Z,1019.17
2017-11-18T00:01:51.542Z,1019.18
2017-11-18T00:02:32.050Z,1019.23
2017-11-18T00:03:12.587Z,1019.19
2017-11-18T00:03:53.116Z,1019.19
2017-11-18T00:04:33.612Z,1019.2
2017-11-18T00:05:14.133Z,1019.24
2017-11-18T00:05:54.660Z,1019.22
2017-11-18T00:06:35.176Z,1019.21
2017-11-18T00:07:15.698Z,1019.19
2017-11-18T00:07:56.211Z,1019.21
2017-11-18T00:08:36.746Z,1019.2
2017-11-18T00:09:17.256Z,1019.15
2017-11-18T00:09:57.777Z,1019.19
2017-11-18T00:10:38.304Z,1019.2
2017-11-18T00:11:18.820Z,1019.18
2017-11-18T00:11:59.340Z,1019.19
2017-11-18T00:12:39.854Z,1019.18
2017-11-18T00:13:20.356Z,1019.18
2017-11-18T00:14:00.855Z,1019.16
2017-11-18T00:14:41.363Z,1019.18
2017-11-18T00:15:21.880Z,1019.14
2017-11-18T00:16:02.411Z,1019.17
2017-11-18T00:16:42.920Z,1019.17
2017-11-18T00:17:23.435Z,1019.16
2017-11-18T00:18:03.954Z,1019.15
2017-11-18T00:18:44.463Z,1019.16
2017-11-18T00:19:24.994Z,1019.11
2017-11-18T00:20:05.515Z,1019.16
2017-11-18T00:20:46.047Z,1019.13
2017-11-18T00:21:26.534Z,1019.14
2017-11-18T00:22:07.050Z,1019.12
2017-11-18T00:22:47.558Z,1019.13
2017-11-18T00:23:28.077Z,1019.12
2017-11-18T00:24:08.607Z,1019.1
2017-11-18T00:24:49.125Z,1019.04
2017-11-18T00:25:29.625Z,1019.07
2017-11-18T00:26:10.164Z,1019.08
2017-11-18T00:26:50.668Z,1019.09
2017-11-18T00:27:31.193Z,1019
2017-11-18T00:28:11.720Z,1019.04
2017-11-18T00:28:52.277Z,1019.06
2017-11-18T00:29:32.802Z,1019.06
2017-11-18T00:30:13.317Z,1019.06
2017-11-18T00:30:53.830Z,1019.09
2017-11-18T00:31:34.370Z,1019.1
2017-11-18T00:32:14.857Z,1019.08
2017-11-18T00:32:55.387Z,1019.12
2017-11-18T00:33:35.913Z,1019.09
2017-11-18T00:34:16.444Z,1019.12
2017-11-18T00:34:56.960Z,1019.08
2017-11-18T00:35:37.487Z,1019.07
2017-11-18T00:36:17.990Z,1019.09
2017-11-18T00:36:58.514Z,1019.11
2017-11-18T00:37:39.033Z,1019.03
2017-11-18T00:38:19.566Z,1019.07
2017-11-18T00:39:00.081Z,1019.08
2017-11-18T00:39:40.587Z,1019.05
2017-11-18T00:40:21.140Z,1019.08
2017-11-18T00:41:01.663Z,1019.1
2017-11-18T00:41:42.178Z,1019.1
2017-11-18T00:42:22.700Z,1019.08
2017-11-18T00:43:03.221Z,1019.06
2017-11-18T00:43:43.739Z,1019.1
2017-11-18T00:44:24.262Z,1019.04
2017-11-18T00:45:04.804Z,1019.11
2017-11-18T00:45:45.305Z,1019.06
2017-11-18T00:46:25.812Z,1019.06
2017-11-18T00:47:06.325Z,1019.02
2017-11-18T00:47:46.817Z,1019.04
2017-11-18T00:48:27.332Z,1019.02
2017-11-18T00:49:07.860Z,1019.02
2017-11-18T00:49:48.374Z,1018.97
2017-11-18T00:50:28.911Z,1018.99
2017-11-18T00:51:09.424Z,1018.98
2017-11-18T00:51:49.941Z,1019.03
2017-11-18T00:52:30.453Z,1019.07
2017-11-18T00:53:10.993Z,1019.07
2017-11-18T00:53:51.509Z,1019.08
2017-11-18T00:54:32.035Z,1019.06
2017-11-18T00:55:12.557Z,1019.04
2017-11-18T00:55:53.064Z,1019.08
2017-11-18T00:56:33.600Z,1019.03
2017-11-18T00:57:14.114Z,1019.03
2017-11-18T00:57:54.642Z,1019.01
2017-11-18T00:58:35.179Z,1019.02
2017-11-18T00:59:15.709Z,1019.01
2017-11-18T00:59:56.236Z,1019.04
2017-11-18T01:00:36.745Z,1019.07
2017-11-18T01:01:17.255Z,1019.04
2017-11-18T01:01:57.771Z,1019.03
2017-11-18T01:02:38.298Z,1019.04
2017-11-18T01:03:18.830Z,1019.03
2017-11-18T01:03:59.359Z,1019.04
2017-11-18T01:04:39.898Z,1019.02
2017-11-18T01:05:20.402Z,1019.03
2017-11-18T01:06:00.928Z,1019.07
2017-11-18T01:06:41.439Z,1019.02
2017-11-18T01:07:21.984Z,1019
2017-11-18T01:08:02.496Z,1019.02
2017-11-18T01:08:43.026Z,1019.06
2017-11-18T01:09:23.516Z,1019.04
2017-11-18T01:10:04.034Z,1019.04
2017-11-18T01:10:44.525Z,1019.06
2017-11-18T01:11:25.048Z,1019.08
2017-11-18T01:12:05.570Z,1019.03
2017-11-18T01:12:46.075Z,1019.02
2017-11-18T01:13:26.599Z,1019.04
2017-11-18T01:14:07.126Z,1019.02
2017-11-18T01:14:47.646Z,1018.96
2017-11-18T01:15:28.150Z,1019
2017-11-18T01:16:08.663Z,1019
2017-11-18T01:16:49.175Z,1018.98
2017-11-18T01:17:29.698Z,1019.01
2017-11-18T01:18:10.197Z,1019.01
2017-11-18T01:18:50.716Z,1018.99
2017-11-18T01:19:31.241Z,1019.03
2017-11-18T01:20:11.747Z,1019.02
2017-11-18T01:20:52.274Z,1019
2017-11-18T01:21:32.799Z,1018.99
2017-11-18T01:22:13.339Z,1019.01
2017-11-18T01:22:53.842Z,1019.01
2017-11-18T01:23:34.369Z,1018.99
2017-11-18T01:24:14.892Z,1018.97
2017-11-18T01:24:55.399Z,1019
2017-11-18T01:25:35.913Z,1019.02
2017-11-18T01:26:16.427Z,1019.02
2017-11-18T01:26:56.937Z,1019.04
2017-11-18T01:27:37.448Z,1019.09
2017-11-18T01:28:17.965Z,1019.05
2017-11-18T01:28:58.475Z,1019.06
2017-11-18T01:29:39.001Z,1019.04
2017-11-18T01:30:19.518Z,1019.08
2017-11-18T01:31:00.012Z,1019.09
2017-11-18T01:31:40.529Z,1019.06
2017-11-18T01:32:21.047Z,1019.02
2017-11-18T01:33:01.592Z,1018.98
2017-11-18T01:33:42.108Z,1018.96
2017-11-18T01:34:22.621Z,1019.01
2017-11-18T01:35:03.124Z,1018.96
2017-11-18T01:35:43.653Z,1018.86
2017-11-18T01:36:24.162Z,1018.92
2017-11-18T01:37:04.687Z,1018.86
2017-11-18T01:37:45.229Z,1018.88
2017-11-18T01:38:25.725Z,1018.9
2017-11-18T01:39:06.246Z,1018.89
2017-11-18T01:39:46.771Z,1018.85
2017-11-18T01:40:27.305Z,1018.84
2017-11-18T01:41:07.828Z,1018.84
2017-11-18T01:41:48.340Z,1018.82
2017-11-18T01:42:28.844Z,1018.8
2017-11-18T01:43:09.370Z,1018.79
2017-11-18T01:43:49.878Z,1018.77
2017-11-18T01:44:30.392Z,1018.74
2017-11-18T01:45:10.910Z,1018.76
2017-11-18T01:45:51.437Z,1018.76
2017-11-18T01:46:31.943Z,1018.75
2017-11-18T01:47:12.445Z,1018.75
2017-11-18T01:47:52.944Z,1018.76
2017-11-18T01:48:33.481Z,1018.73
2017-11-18T01:49:13.995Z,1018.75
2017-11-18T01:49:54.501Z,1018.79
2017-11-18T01:50:35.039Z,1018.7
2017-11-18T01:51:15.544Z,1018.71
2017-11-18T01:51:56.074Z,1018.71
2017-11-18T01:52:36.605Z,1018.73
2017-11-18T01:53:17.134Z,1018.69
2017-11-18T01:53:57.651Z,1018.72
2017-11-18T01:54:38.175Z,1018.68
2017-11-18T01:55:18.697Z,1018.71
2017-11-18T01:55:59.215Z,1018.69
2017-11-18T01:56:39.733Z,1018.74
2017-11-18T01:57:20.264Z,1018.71
2017-11-18T01:58:00.777Z,1018.72
2017-11-18T01:58:41.285Z,1018.68
2017-11-18T01:59:21.786Z,1018.7
2017-11-18T02:00:02.310Z,1018.66
2017-11-18T02:00:42.888Z,1018.62
2017-11-18T02:01:23.422Z,1018.64
2017-11-18T02:02:03.933Z,1018.6
2017-11-18T02:02:44.447Z,1018.61
2017-11-18T02:03:24.949Z,1018.61
2017-11-18T02:04:05.498Z,1018.64
2017-11-18T02:04:45.982Z,1018.59
2017-11-18T02:05:26.500Z,1018.58
2017-11-18T02:06:07.019Z,1018.58
2017-11-18T02:06:47.553Z,1018.58
2017-11-18T02:07:28.051Z,1018.53
2017-11-18T02:08:08.551Z,1018.53
2017-11-18T02:08:49.059Z,1018.53
2017-11-18T02:09:29.579Z,1018.53
2017-11-18T02:10:10.134Z,1018.57
2017-11-18T02:10:50.606Z,1018.52
2017-11-18T02:11:31.115Z,1018.54
2017-11-18T02:12:11.654Z,1018.54
2017-11-18T02:12:52.177Z,1018.52
2017-11-18T02:13:32.700Z,1018.48
2017-11-18T02:14:13.215Z,1018.49
2017-11-18T02:14:53.717Z,1018.45
2017-11-18T02:15:34.234Z,1018.42
2017-11-18T02:16:14.749Z,1018.42
2017-11-18T02:16:55.267Z,1018.39
2017-11-18T02:17:35.776Z,1018.38
2017-11-18T02:18:16.289Z,1018.36
2017-11-18T02:18:56.794Z,1018.39
2017-11-18T02:19:37.313Z,1018.34
2017-11-18T02:20:17.815Z,1018.33
2017-11-18T02:20:58.332Z,1018.31
2017-11-18T02:21:38.847Z,1018.3
2017-11-18T02:22:19.343Z,1018.28
2017-11-18T02:22:59.858Z,1018.29
2017-11-18T02:23:40.393Z,1018.25
2017-11-18T02:24:20.947Z,1018.27
2017-11-18T02:25:01.442Z,1018.27
2017-11-18T02:25:41.956Z,1018.33
2017-11-18T02:26:22.485Z,1018.32
2017-11-18T02:27:02.994Z,1018.26
2017-11-18T02:27:43.509Z,1018.26
2017-11-18T02:28:24.042Z,1018.27
2017-11-18T02:29:04.610Z,1018.26
2017-11-18T02:29:45.143Z,1018.29
2017-11-18T02:30:25.662Z,1018.25
2017-11-18T02:31:06.176Z,1018.27
2017-11-18T02:31:46.691Z,1018.27
2017-11-18T02:32:27.204Z,1018.29
2017-11-18T02:33:07.724Z,1018.26
2017-11-18T02:33:48.249Z,1018.27
2017-11-18T02:34:28.769Z,1018.22
2017-11-18T02:35:09.296Z,1018.24
2017-11-18T02:35:49.814Z,1018.22
2017-11-18T02:36:30.337Z,1018.19
2017-11-18T02:37:10.852Z,1018.18
2017-11-18T02:37:51.359Z,1018.17
2017-11-18T02:38:31.878Z,1018.15
2017-11-18T02:39:12.394Z,1018.17
2017-11-18T02:39:52.913Z,1018.18
2017-11-18T02:40:33.445Z,1018.18
2017-11-18T02:41:13.973Z,1018.13
2017-11-18T02:41:54.488Z,1018.17
2017-11-18T02:42:35.099Z,1018.12
2017-11-18T02:43:15.600Z,1018.12
2017-11-18T02:43:56.113Z,1018.12
2017-11-18T02:44:36.638Z,1018.11
2017-11-18T02:45:17.157Z,1018.05
2017-11-18T02:45:57.672Z,1018.09
2017-11-18T02:46:38.204Z,1018.1
2017-11-18T02:47:18.739Z,1018.06
2017-11-18T02:47:59.251Z,1018.07
2017-11-18T02:48:39.767Z,1018.02
2017-11-18T02:49:20.297Z,1017.99
2017-11-18T02:50:00.812Z,1018.02
2017-11-18T02:50:41.337Z,1017.98
2017-11-18T02:51:21.840Z,1018.01
2017-11-18T02:52:02.379Z,1017.98
2017-11-18T02:52:42.902Z,1018.02
2017-11-18T02:53:23.414Z,1017.98
2017-11-18T02:54:03.934Z,1017.98
2017-11-18T02:54:44.452Z,1018
2017-11-18T02:55:24.960Z,1017.96
2017-11-18T02:56:05.492Z,1017.95
2017-11-18T02:56:45.990Z,1017.98
2017-11-18T02:57:26.513Z,1017.98
2017-11-18T02:58:07.037Z,1017.97
2017-11-18T02:58:47.550Z,1017.92
2017-11-18T02:59:28.074Z,1017.93
2017-11-18T03:00:08.592Z,1017.88
2017-11-18T03:00:49.094Z,1017.91
2017-11-18T03:01:29.612Z,1017.93
2017-11-18T03:02:10.147Z,1017.91
2017-11-18T03:02:50.651Z,1017.9
2017-11-18T03:03:31.175Z,1017.89
2017-11-18T03:04:11.699Z,1017.88
2017-11-18T03:04:52.194Z,1017.85
2017-11-18T03:05:32.721Z,1017.89
2017-11-18T03:06:13.218Z,1017.87
2017-11-18T03:06:53.726Z,1017.85
2017-11-18T03:07:34.249Z,1017.9
2017-11-18T03:08:14.766Z,1017.84
2017-11-18T03:08:55.299Z,1017.86
2017-11-18T03:09:35.814Z,1017.85
2017-11-18T03:10:16.340Z,1017.84
2017-11-18T03:10:56.854Z,1017.81
2017-11-18T03:11:37.375Z,1017.8
2017-11-18T03:12:17.882Z,1017.81
2017-11-18T03:12:58.404Z,1017.84
2017-11-18T03:13:38.936Z,1017.75
2017-11-18T03:14:19.429Z,1017.78
2017-11-18T03:14:59.950Z,1017.76
2017-11-18T03:15:40.473Z,1017.77
2017-11-18T03:16:20.987Z,1017.75
2017-11-18T03:17:01.497Z,1017.72
2017-11-18T03:17:42.016Z,1017.73
2017-11-18T03:18:22.544Z,1017.74
2017-11-18T03:19:03.065Z,1017.73
2017-11-18T03:19:43.585Z,1017.73
2017-11-18T03:20:24.104Z,1017.72
2017-11-18T03:21:04.616Z,1017.71
2017-11-18T03:21:45.124Z,1017.75
2017-11-18T03:22:25.642Z,1017.66
2017-11-18T03:23:06.155Z,1017.67
2017-11-18T03:23:46.670Z,1017.68
2017-11-18T03:24:27.198Z,1017.7
2017-11-18T03:25:07.712Z,1017.69
2017-11-18T03:25:48.236Z,1017.67
2017-11-18T03:26:28.741Z,1017.7
2017-11-18T03:27:09.266Z,1017.68
2017-11-18T03:27:49.780Z,1017.67
2017-11-18T03:28:30.304Z,1017.7
2017-11-18T03:29:10.822Z,1017.68
2017-11-18T03:29:51.327Z,1017.7
2017-11-18T03:30:31.855Z,1017.69
2017-11-18T03:31:12.394Z,1017.7
2017-11-18T03:31:52.888Z,1017.71
2017-11-18T03:32:33.406Z,1017.72
2017-11-18T03:33:13.939Z,1017.69
2017-11-18T03:33:54.452Z,1017.69
2017-11-18T03:34:34.991Z,1017.71
2017-11-18T03:35:15.517Z,1017.71
2017-11-18T03:35:56.045Z,1017.72
2017-11-18T03:36:36.564Z,1017.74
2017-11-18T03:37:17.115Z,1017.66
2017-11-18T03:37:57.628Z,1017.69
2017-11-18T03:38:38.143Z,1017.74
2017-11-18T03:39:18.664Z,1017.7
2017-11-18T03:39:59.184Z,1017.75
2017-11-18T03:40:39.710Z,1017.72
2017-11-18T03:41:20.234Z,1017.73
2017-11-18T03:42:00.749Z,1017.72
2017-11-18T03:42:41.261Z,1017.68
2017-11-18T03:43:21.796Z,1017.67
2017-11-18T03:44:02.312Z,1017.69
2017-11-18T03:44:42.829Z,1017.7
2017-11-18T03:45:23.350Z,1017.69
2017-11-18T03:46:03.853Z,1017.7
2017-11-18T03:46:44.390Z,1017.69
2017-11-18T03:47:24.914Z,1017.67
2017-11-18T03:48:05.428Z,1017.7
2017-11-18T03:48:45.943Z,1017.67
2017-11-18T03:49:26.450Z,1017.68
2017-11-18T03:50:06.952Z,1017.66
2017-11-18T03:50:47.469Z,1017.65
2017-11-18T03:51:28.000Z,1017.69
2017-11-18T03:52:08.503Z,1017.69
2017-11-18T03:52:49.031Z,1017.69
2017-11-18T03:53:29.564Z,1017.7
2017-11-18T03:54:10.065Z,1017.67
2017-11-18T03:54:50.584Z,1017.6
2017-11-18T03:55:31.085Z,1017.59
2017-11-18T03:56:11.593Z,1017.6
2017-11-18T03:56:52.122Z,1017.6
2017-11-18T03:57:32.639Z,1017.56
2017-11-18T03:58:13.158Z,1017.56
2017-11-18T03:58:53.684Z,1017.54
2017-11-18T03:59:34.214Z,1017.55
2017-11-18T04:00:14.707Z,1017.54
2017-11-18T04:00:55.224Z,1017.52
2017-11-18T04:01:35.736Z,1017.52
2017-11-18T04:02:16.260Z,1017.48
2017-11-18T04:02:56.765Z,1017.47
2017-11-18T04:03:37.256Z,1017.43
2017-11-18T04:04:17.780Z,1017.44
2017-11-18T04:04:58.320Z,1017.47
2017-11-18T04:05:38.840Z,1017.47
2017-11-18T04:06:19.359Z,1017.44
2017-11-18T04:06:59.884Z,1017.42
2017-11-18T04:07:40.390Z,1017.44
2017-11-18T04:08:20.906Z,1017.43
2017-11-18T04:09:01.424Z,1017.41
2017-11-18T04:09:41.944Z,1017.44
2017-11-18T04:10:22.442Z,1017.47
2017-11-18T04:11:02.976Z,1017.47
2017-11-18T04:11:43.499Z,1017.47
2017-11-18T04:12:23.995Z,1017.42
2017-11-18T04:13:04.531Z,1017.46
2017-11-18T04:13:45.054Z,1017.44
2017-11-18T04:14:25.557Z,1017.39
2017-11-18T04:15:06.115Z,1017.42
2017-11-18T04:15:46.616Z,1017.4
2017-11-18T04:16:27.127Z,1017.4
2017-11-18T04:17:07.617Z,1017.4
2017-11-18T04:17:48.132Z,1017.41
2017-11-18T04:18:28.642Z,1017.38
2017-11-18T04:19:09.154Z,1017.36
2017-11-18T04:19:49.696Z,1017.4
2017-11-18T04:20:30.168Z,1017.4
2017-11-18T04:21:10.679Z,1017.39
2017-11-18T04:21:51.186Z,1017.37
2017-11-18T04:22:31.705Z,1017.37
2017-11-18T04:23:12.276Z,1017.37
2017-11-18T04:23:52.781Z,1017.38
2017-11-18T04:24:33.302Z,1017.42
2017-11-18T04:25:13.884Z,1017.41
2017-11-18T04:25:54.386Z,1017.41
2017-11-18T04:26:34.894Z,1017.39
2017-11-18T04:27:15.391Z,1017.38
2017-11-18T04:27:55.911Z,1017.39
2017-11-18T04:28:36.410Z,1017.35
2017-11-18T04:29:16.927Z,1017.37
2017-11-18T04:29:57.418Z,1017.34
2017-11-18T04:30:37.949Z,1017.35
2017-11-18T04:31:18.473Z,1017.33
2017-11-18T04:31:58.998Z,1017.33
2017-11-18T04:32:39.517Z,1017.34
2017-11-18T04:33:20.030Z,1017.32
2017-11-18T04:34:00.554Z,1017.32
2017-11-18T04:34:41.059Z,1017.31
2017-11-18T04:35:21.588Z,1017.3
2017-11-18T04:36:02.107Z,1017.32
2017-11-18T04:36:42.618Z,1017.31
2017-11-18T04:37:23.121Z,1017.33
2017-11-18T04:38:03.637Z,1017.31
2017-11-18T04:38:44.162Z,1017.29
2017-11-18T04:39:24.689Z,1017.33
2017-11-18T04:40:05.224Z,1017.34
2017-11-18T04:40:45.756Z,1017.31
2017-11-18T04:41:26.270Z,1017.32
2017-11-18T04:42:06.784Z,1017.32
2017-11-18T04:42:47.324Z,1017.32
2017-11-18T04:43:27.854Z,1017.3
2017-11-18T04:44:08.371Z,1017.3
2017-11-18T04:44:48.897Z,1017.27
2017-11-18T04:45:29.415Z,1017.24
2017-11-18T04:46:09.936Z,1017.24
2017-11-18T04:46:50.451Z,1017.21
2017-11-18T04:47:31.026Z,1017.21
2017-11-18T04:48:11.543Z,1017.25
2017-11-18T04:48:52.072Z,1017.2
2017-11-18T04:49:32.573Z,1017.2
2017-11-18T04:50:13.101Z,1017.21
2017-11-18T04:50:53.624Z,1017.25
2017-11-18T04:51:34.175Z,1017.24
2017-11-18T04:52:14.689Z,1017.23
2017-11-18T04:52:55.199Z,1017.24
2017-11-18T04:53:35.756Z,1017.24
2017-11-18T04:54:16.294Z,1017.24
2017-11-18T04:54:56.832Z,1017.25
2017-11-18T04:55:37.345Z,1017.25
2017-11-18T04:56:17.837Z,1017.23
2017-11-18T04:56:58.370Z,1017.22
2017-11-18T04:57:38.871Z,1017.19
2017-11-18T04:58:19.390Z,1017.18
2017-11-18T04:58:59.914Z,1017.17
2017-11-18T04:59:40.437Z,1017.13
2017-11-18T05:00:20.957Z,1017.09
2017-11-18T05:01:01.479Z,1017.07
2017-11-18T05:01:41.995Z,1017.06
2017-11-18T05:02:22.522Z,1017.06
2017-11-18T05:03:03.027Z,1017.03
2017-11-18T05:03:43.539Z,1017.04
2017-11-18T05:04:24.072Z,1017.05
2017-11-18T05:05:04.599Z,1017.08
2017-11-18T05:05:45.106Z,1017.04
2017-11-18T05:06:25.618Z,1017.04
2017-11-18T05:07:06.141Z,1017.06
2017-11-18T05:07:46.672Z,1017.05
2017-11-18T05:08:27.192Z,1017.05
2017-11-18T05:09:07.695Z,1017.03
2017-11-18T05:09:48.206Z,1017
2017-11-18T05:10:28.711Z,1017
2017-11-18T05:11:09.224Z,1016.98
2017-11-18T05:11:49.797Z,1016.95
2017-11-18T05:12:30.312Z,1016.96
2017-11-18T05:13:10.828Z,1016.96
2017-11-18T05:13:51.329Z,1016.97
2017-11-18T05:14:31.848Z,1016.96
2017-11-18T05:15:12.359Z,1016.97
2017-11-18T05:15:52.886Z,1016.93
2017-11-18T05:16:33.397Z,1016.91
2017-11-18T05:17:13.912Z,1016.94
2017-11-18T05:17:54.432Z,1016.95
2017-11-18T05:18:34.946Z,1016.94
2017-11-18T05:19:15.461Z,1016.96
2017-11-18T05:19:55.988Z,1016.94
2017-11-18T05:20:36.508Z,1016.98
2017-11-18T05:21:17.023Z,1016.99
2017-11-18T05:21:57.538Z,1016.94
2017-11-18T05:22:38.075Z,1016.94
2017-11-18T05:23:18.575Z,1016.95
2017-11-18T05:23:59.133Z,1016.94
2017-11-18T05:24:39.644Z,1016.91
2017-11-18T05:25:20.154Z,1016.9
2017-11-18T05:26:00.658Z,1016.94
2017-11-18T05:26:41.172Z,1016.93
2017-11-18T05:27:21.687Z,1016.96
2017-11-18T05:28:02.281Z,1016.93
2017-11-18T05:28:42.785Z,1016.95
2017-11-18T05:29:23.310Z,1016.94
2017-11-18T05:30:03.847Z,1016.96
2017-11-18T05:30:44.365Z,1016.96
2017-11-18T05:31:24.880Z,1016.96
2017-11-18T05:32:05.402Z,1016.95
2017-11-18T05:32:45.934Z,1016.99
2017-11-18T05:33:26.468Z,1016.93
2017-11-18T05:34:06.984Z,1017
2017-11-18T05:34:47.510Z,1016.97
2017-11-18T05:35:28.035Z,1016.98
2017-11-18T05:36:08.528Z,1016.97
2017-11-18T05:36:49.047Z,1016.94
2017-11-18T05:37:29.566Z,1016.94
2017-11-18T05:38:10.116Z,1016.93
2017-11-18T05:38:50.706Z,1016.9
2017-11-18T05:39:31.307Z,1016.93
2017-11-18T05:40:11.917Z,1016.92
2017-11-18T05:40:52.383Z,1016.91
2017-11-18T05:41:32.908Z,1016.92
2017-11-18T05:42:13.421Z,1016.93
2017-11-18T05:42:53.925Z,1016.93
2017-11-18T05:43:34.442Z,1016.93
2017-11-18T05:44:14.971Z,1016.87
2017-11-18T05:44:55.487Z,1016.93
2017-11-18T05:45:35.998Z,1016.95
2017-11-18T05:46:16.511Z,1016.95
2017-11-18T05:46:57.023Z,1016.9
2017-11-18T05:47:37.545Z,1016.93
2017-11-18T05:48:18.048Z,1016.94
2017-11-18T05:48:58.574Z,1016.92
2017-11-18T05:49:39.099Z,1016.94
2017-11-18T05:50:19.624Z,1016.88
2017-11-18T05:51:00.125Z,1016.91
2017-11-18T05:51:40.642Z,1016.94
2017-11-18T05:52:21.151Z,1016.94
2017-11-18T05:53:01.666Z,1016.95
2017-11-18T05:53:42.189Z,1016.95
2017-11-18T05:54:22.695Z,1016.92
2017-11-18T05:55:03.218Z,1016.92
2017-11-18T05:55:43.745Z,1016.92
2017-11-18T05:56:24.277Z,1016.9
2017-11-18T05:57:04.790Z,1016.91
2017-11-18T05:57:45.310Z,1016.89
2017-11-18T05:58:25.853Z,1016.89
2017-11-18T05:59:06.364Z,1016.88
2017-11-18T05:59:46.894Z,1016.89
2017-11-18T06:00:27.424Z,1016.86
2017-11-18T06:01:08.002Z,1016.86
2017-11-18T06:01:48.549Z,1016.89
2017-11-18T06:02:29.063Z,1016.83
2017-11-18T06:03:09.590Z,1016.88
2017-11-18T06:03:50.112Z,1016.92
2017-11-18T06:04:30.618Z,1016.9
2017-11-18T06:05:11.146Z,1016.89
2017-11-18T06:05:51.676Z,1016.82
2017-11-18T06:06:32.203Z,1016.82
2017-11-18T06:07:12.716Z,1016.8
2017-11-18T06:07:53.245Z,1016.81
2017-11-18T06:08:33.769Z,1016.77
2017-11-18T06:09:14.292Z,1016.77
2017-11-18T06:09:54.819Z,1016.76
2017-11-18T06:10:35.352Z,1016.77
2017-11-18T06:11:15.938Z,1016.78
2017-11-18T06:11:56.441Z,1016.81
2017-11-18T06:12:36.956Z,1016.77
2017-11-18T06:13:17.477Z,1016.8
2017-11-18T06:13:58.009Z,1016.81
2017-11-18T06:14:38.532Z,1016.76
2017-11-18T06:15:19.095Z,1016.78
2017-11-18T06:15:59.624Z,1016.76
2017-11-18T06:16:40.158Z,1016.77
2017-11-18T06:17:20.654Z,1016.79
2017-11-18T06:18:01.170Z,1016.77
2017-11-18T06:18:41.709Z,1016.81
2017-11-18T06:19:22.196Z,1016.79
2017-11-18T06:20:02.704Z,1016.78
2017-11-18T06:20:43.219Z,1016.77
2017-11-18T06:21:23.724Z,1016.79
2017-11-18T06:22:04.225Z,1016.72
2017-11-18T06:22:44.769Z,1016.78
2017-11-18T06:23:25.282Z,1016.74
2017-11-18T06:24:05.787Z,1016.75
2017-11-18T06:24:46.288Z,1016.74
2017-11-18T06:25:26.798Z,1016.72
2017-11-18T06:26:07.323Z,1016.74
2017-11-18T06:26:47.834Z,1016.75
2017-11-18T06:27:28.350Z,1016.79
2017-11-18T06:28:08.861Z,1016.75
2017-11-18T06:28:49.360Z,1016.75
2017-11-18T06:29:29.875Z,1016.74
2017-11-18T06:30:10.396Z,1016.79
2017-11-18T06:30:50.909Z,1016.79
2017-11-18T06:31:31.432Z,1016.75
2017-11-18T06:32:11.941Z,1016.77
2017-11-18T06:32:52.433Z,1016.73
2017-11-18T06:33:32.969Z,1016.77
2017-11-18T06:34:13.461Z,1016.83
2017-11-18T06:34:54.003Z,1016.77
2017-11-18T06:35:34.526Z,1016.84
2017-11-18T06:36:15.056Z,1016.84
2017-11-18T06:36:55.574Z,1016.85
2017-11-18T06:37:36.071Z,1016.87
2017-11-18T06:38:16.599Z,1016.87
2017-11-18T06:38:57.101Z,1016.92
2017-11-18T06:39:37.604Z,1016.91
2017-11-18T06:40:18.152Z,1016.91
2017-11-18T06:40:58.648Z,1016.93
2017-11-18T06:41:39.180Z,1016.93
2017-11-18T06:42:19.669Z,1016.99
2017-11-18T06:43:00.173Z,1016.96
2017-11-18T06:43:40.681Z,1016.94
2017-11-18T06:44:21.188Z,1016.97
2017-11-18T06:45:01.710Z,1016.96
2017-11-18T06:45:42.201Z,1016.97
2017-11-18T06:46:22.710Z,1016.92
2017-11-18T06:47:03.227Z,1016.94
2017-11-18T06:47:43.727Z,1016.9
2017-11-18T06:48:24.224Z,1016.89
2017-11-18T06:49:04.731Z,1016.87
2017-11-18T06:49:45.272Z,1016.86
2017-11-18T06:50:25.795Z,1016.86
2017-11-18T06:51:06.319Z,1016.83
2017-11-18T06:51:46.816Z,1016.83
2017-11-18T06:52:27.339Z,1016.81
2017-11-18T06:53:07.825Z,1016.81
2017-11-18T06:53:48.326Z,1016.83
2017-11-18T06:54:28.831Z,1016.8
2017-11-18T06:55:09.363Z,1016.77
2017-11-18T06:55:49.878Z,1016.73
2017-11-18T06:56:30.398Z,1016.74
2017-11-18T06:57:10.917Z,1016.75
2017-11-18T06:57:52.094Z,1016.69
2017-11-18T06:58:32.613Z,1016.73
2017-11-18T06:59:13.124Z,1016.76
2017-11-18T06:59:53.645Z,1016.79
2017-11-18T07:00:34.153Z,1016.79
2017-11-18T07:01:14.708Z,1016.79
2017-11-18T07:01:55.191Z,1016.8
2017-11-18T07:02:35.718Z,1016.8
2017-11-18T07:03:16.213Z,1016.8
2017-11-18T07:03:56.712Z,1016.8
2017-11-18T07:04:37.206Z,1016.87
2017-11-18T07:05:17.726Z,1016.85
2017-11-18T07:05:58.239Z,1016.9
2017-11-18T07:06:38.737Z,1016.94
2017-11-18T07:07:19.249Z,1016.94
2017-11-18T07:07:59.767Z,1016.91
2017-11-18T07:08:40.264Z,1016.9
2017-11-18T07:09:20.770Z,1016.93
2017-11-18T07:10:01.332Z,1016.9
2017-11-18T07:10:41.836Z,1016.92
2017-11-18T07:11:22.346Z,1016.89
2017-11-18T07:12:02.939Z,1016.92
2017-11-18T07:12:43.442Z,1016.93
2017-11-18T07:13:23.939Z,1016.95
2017-11-18T07:14:04.457Z,1016.92
2017-11-18T07:14:44.989Z,1016.94
2017-11-18T07:15:25.563Z,1016.91
2017-11-18T07:16:06.058Z,1016.85
2017-11-18T07:16:46.577Z,1016.9
2017-11-18T07:17:27.093Z,1016.89
2017-11-18T07:18:07.871Z,1016.87
2017-11-18T07:18:48.463Z,1016.86
2017-11-18T07:19:29.091Z,1016.84
2017-11-18T07:20:09.747Z,1016.83
2017-11-18T07:20:50.270Z,1016.78
2017-11-18T07:21:30.786Z,1016.81
2017-11-18T07:22:11.301Z,1016.84
2017-11-18T07:22:51.790Z,1016.81
2017-11-18T07:23:32.313Z,1016.8
2017-11-18T07:24:12.808Z,1016.83
2017-11-18T07:24:53.317Z,1016.81
2017-11-18T07:25:33.825Z,1016.86
2017-11-18T07:26:14.330Z,1016.82
2017-11-18T07:26:54.871Z,1016.83
2017-11-18T07:27:35.352Z,1016.84
2017-11-18T07:28:15.851Z,1016.86
2017-11-18T07:28:56.386Z,1016.83
2017-11-18T07:29:36.910Z,1016.82
2017-11-18T07:30:17.453Z,1016.84
2017-11-18T07:30:57.986Z,1016.81
2017-11-18T07:31:38.501Z,1016.83
2017-11-18T07:32:19.039Z,1016.84
2017-11-18T07:32:59.555Z,1016.85
2017-11-18T07:33:40.085Z,1016.85
2017-11-18T07:34:20.597Z,1016.88
2017-11-18T07:35:01.101Z,1016.84
2017-11-18T07:35:41.704Z,1016.88
2017-11-18T07:36:22.230Z,1016.88
2017-11-18T07:37:02.755Z,1016.87
2017-11-18T07:37:43.276Z,1016.87
2017-11-18T07:39:57.705Z,1016.94
2017-11-18T07:40:38.276Z,1016.94
2017-11-18T07:41:18.795Z,1016.98
2017-11-18T07:41:59.317Z,1017
2017-11-18T07:42:39.849Z,1016.94
2017-11-18T07:43:20.367Z,1016.96
2017-11-18T07:44:00.889Z,1016.97
2017-11-18T07:44:41.409Z,1016.97
2017-11-18T07:45:21.919Z,1016.94
2017-11-18T07:46:02.441Z,1016.97
2017-11-18T07:46:42.944Z,1017
2017-11-18T07:47:23.454Z,1017.01
2017-11-18T07:48:03.951Z,1017
2017-11-18T07:48:44.470Z,1017
2017-11-18T07:49:25.020Z,1017.03
2017-11-18T07:50:05.529Z,1017.05
2017-11-18T07:50:46.064Z,1017.02
2017-11-18T07:51:26.616Z,1017.06
2017-11-18T07:52:07.135Z,1017.04
2017-11-18T07:52:47.655Z,1017.07
2017-11-18T07:53:28.164Z,1017.05
2017-11-18T07:54:08.677Z,1017.08
2017-11-18T07:54:49.210Z,1017.04
2017-11-18T07:55:29.735Z,1017.01
2017-11-18T07:56:10.255Z,1017
2017-11-18T07:56:50.777Z,1017.02
2017-11-18T07:57:31.311Z,1016.97
2017-11-18T07:58:11.845Z,1016.95
2017-11-18T07:58:52.367Z,1016.97
2017-11-18T07:59:32.885Z,1016.94
2017-11-18T08:00:13.401Z,1016.92
2017-11-18T08:00:53.902Z,1016.93
2017-11-18T08:01:34.438Z,1016.86
2017-11-18T08:02:14.964Z,1016.88
2017-11-18T08:02:55.496Z,1016.84
2017-11-18T08:03:36.052Z,1016.86
2017-11-18T08:04:16.560Z,1016.87
2017-11-18T08:04:57.092Z,1016.88
2017-11-18T08:05:37.618Z,1016.85
2017-11-18T08:06:18.164Z,1016.92
2017-11-18T08:06:58.671Z,1016.9
2017-11-18T08:07:39.190Z,1016.91
2017-11-18T08:08:19.730Z,1016.87
2017-11-18T08:09:00.265Z,1016.88
2017-11-18T08:09:40.799Z,1016.84
2017-11-18T08:10:21.328Z,1016.9
2017-11-18T08:11:01.850Z,1016.86
2017-11-18T08:11:42.366Z,1016.88
2017-11-18T08:12:22.889Z,1016.89
2017-11-18T08:13:03.396Z,1016.91
2017-11-18T08:13:43.924Z,1016.85
2017-11-18T08:14:24.412Z,1016.87